createdAt,value
2023-02-03T00:00:01.318Z,100906.53
2023-02-03T00:02:28.902Z,100919.72
2023-02-03T00:04:56.512Z,100931.69
2023-02-03T00:07:25.542Z,100913.13
2023-02-03T00:09:53.335Z,100922.25
2023-02-03T00:12:20.972Z,100924.88
2023-02-03T00:14:48.589Z,100936.72
2023-02-03T00:17:16.132Z,100946.16
2023-02-03T00:19:43.774Z,100955.63
2023-02-03T00:22:11.344Z,100953.00
2023-02-03T00:24:40.335Z,100961.00
2023-02-03T00:27:07.959Z,100968.56
2023-02-03T00:29:35.576Z,100961.25
2023-02-03T00:32:03.249Z,100974.44
2023-02-03T00:34:31.361Z,100975.63
2023-02-03T00:36:59.298Z,100973.59
2023-02-03T00:39:27.061Z,100965.69
2023-02-03T00:41:55.958Z,100959.94
2023-02-03T00:44:23.562Z,100949.84
2023-02-03T00:46:51.112Z,100934.63
2023-02-03T00:49:18.780Z,100926.84
2023-02-03T00:51:46.346Z,100925.91
2023-02-03T00:54:14.226Z,100946.84
2023-02-03T00:56:41.789Z,100951.88
2023-02-03T00:59:10.753Z,100965.44
2023-02-03T01:01:38.994Z,100974.31
2023-02-03T01:04:06.699Z,100979.81
2023-02-03T01:06:34.430Z,100981.00
2023-02-03T01:09:03.334Z,100963.50
2023-02-03T01:11:30.967Z,100961.34
2023-02-03T01:14:01.609Z,100963.53
2023-02-03T01:16:35.878Z,100957.78
2023-02-03T01:19:03.530Z,100956.00
2023-02-03T01:21:31.328Z,100953.25
2023-02-03T01:23:59.587Z,100942.34
2023-02-03T01:26:27.403Z,100927.34
2023-02-03T01:28:56.056Z,100929.03
2023-02-03T01:31:25.555Z,100922.56
2023-02-03T01:33:55.287Z,100918.59
2023-02-03T01:36:24.711Z,100883.25
2023-02-03T01:38:52.848Z,100869.75
2023-02-03T01:41:22.663Z,100875.13
2023-02-03T01:43:52.086Z,100869.06
2023-02-03T01:46:26.842Z,100868.66
2023-02-03T01:49:01.338Z,100876.13
2023-02-03T01:51:29.185Z,100880.78
2023-02-03T01:53:57.451Z,100895.97
2023-02-03T01:56:28.640Z,100897.41
2023-02-03T01:58:56.369Z,100899.91
2023-02-03T02:01:24.057Z,100887.69
2023-02-03T02:03:55.479Z,100889.50
2023-02-03T02:06:24.372Z,100887.84
2023-02-03T02:08:54.347Z,100889.75
2023-02-03T02:11:22.660Z,100889.50
2023-02-03T02:13:52.229Z,100888.66
2023-02-03T02:16:28.424Z,100891.78
2023-02-03T02:19:14.526Z,100869.03
2023-02-03T02:21:57.201Z,100892.84
2023-02-03T02:24:53.643Z,100881.81
2023-02-03T02:27:36.276Z,100871.28
2023-02-03T02:30:35.914Z,100862.41
2023-02-03T02:33:12.779Z,100858.34
2023-02-03T02:35:51.754Z,100855.22
2023-02-03T02:38:27.194Z,100850.31
2023-02-03T02:41:03.848Z,100851.47
2023-02-03T02:43:40.828Z,100842.28
2023-02-03T02:46:14.580Z,100843.00
2023-02-03T02:48:48.736Z,100833.53
2023-02-03T02:51:17.971Z,100831.97
2023-02-03T02:53:50.391Z,100841.78
2023-02-03T02:56:20.413Z,100848.50
2023-02-03T02:58:50.765Z,100867.78
2023-02-03T03:01:19.289Z,100865.97
2023-02-03T03:03:48.429Z,100869.34
2023-02-03T03:06:21.525Z,100869.59
2023-02-03T03:08:55.769Z,100867.91
2023-02-03T03:11:26.818Z,100868.06
2023-02-03T03:13:56.620Z,100898.69
2023-02-03T03:16:26.050Z,100903.66
2023-02-03T03:19:00.071Z,100904.31
2023-02-03T03:21:32.347Z,100911.53
2023-02-03T03:24:04.837Z,100923.75
2023-02-03T03:26:36.688Z,100941.34
2023-02-03T03:29:11.710Z,100949.38
2023-02-03T03:31:40.986Z,100935.25
2023-02-03T03:34:12.076Z,100937.50
2023-02-03T03:36:45.546Z,100932.34
2023-02-03T03:39:21.536Z,100924.47
2023-02-03T03:41:57.825Z,100911.88
2023-02-03T03:44:29.852Z,100904.47
2023-02-03T03:47:05.870Z,100894.75
2023-02-03T03:49:36.874Z,100884.22
2023-02-03T03:52:08.521Z,100868.91
2023-02-03T03:54:38.888Z,100859.19
2023-02-03T03:57:15.089Z,100866.03
2023-02-03T03:59:46.594Z,100876.47
2023-02-03T04:02:15.247Z,100873.00
2023-02-03T04:04:46.227Z,100877.41
2023-02-03T04:07:14.721Z,100870.19
2023-02-03T04:09:43.812Z,100862.06
2023-02-03T04:12:21.098Z,100885.53
2023-02-03T04:14:48.636Z,100885.91
2023-02-03T04:17:16.271Z,100887.81
2023-02-03T04:19:45.240Z,100898.22
2023-02-03T04:22:12.788Z,100895.09
2023-02-03T04:24:40.407Z,100907.94
2023-02-03T04:27:07.950Z,100905.16
2023-02-03T04:29:35.548Z,100890.28
2023-02-03T04:32:03.120Z,100879.59
2023-02-03T04:34:30.759Z,100876.31
2023-02-03T04:36:59.785Z,100880.38
2023-02-03T04:39:27.393Z,100877.25
2023-02-03T04:41:54.978Z,100880.84
2023-02-03T04:44:22.703Z,100900.03
2023-02-03T04:46:50.286Z,100899.28
2023-02-03T04:49:18.570Z,100888.28
2023-02-03T04:51:46.265Z,100906.72
2023-02-03T04:54:15.480Z,100911.28
2023-02-03T04:56:43.176Z,100909.34
2023-02-03T04:59:10.954Z,100915.22
2023-02-03T05:01:38.602Z,100905.84
2023-02-03T05:04:06.262Z,100903.66
2023-02-03T05:06:34.760Z,100886.94
2023-02-03T05:09:02.389Z,100894.13
2023-02-03T05:11:31.664Z,100893.44
2023-02-03T05:13:59.399Z,100894.97
2023-02-03T05:16:27.190Z,100883.00
2023-02-03T05:18:54.769Z,100882.28
2023-02-03T05:21:22.356Z,100875.44
2023-02-03T05:23:49.898Z,100886.66
2023-02-03T05:26:17.672Z,100874.59
2023-02-03T05:28:46.585Z,100876.28
2023-02-03T05:31:14.300Z,100884.41
2023-02-03T05:33:41.924Z,100894.56
2023-02-03T05:36:10.673Z,100903.47
2023-02-03T05:38:38.219Z,100899.88
2023-02-03T05:41:23.834Z,100910.78
2023-02-03T05:43:53.403Z,100913.41
2023-02-03T05:46:20.939Z,100907.75
2023-02-03T05:48:48.477Z,100896.06
2023-02-03T05:51:16.131Z,100884.69
2023-02-03T05:53:43.723Z,100883.72
2023-02-03T05:56:11.266Z,100918.00
2023-02-03T05:58:38.830Z,100926.47
2023-02-03T06:01:07.763Z,100910.03
2023-02-03T06:03:35.336Z,100890.53
2023-02-03T06:06:02.935Z,100895.41
2023-02-03T06:08:30.451Z,100898.41
2023-02-03T06:11:01.144Z,100890.16
2023-02-03T06:13:29.114Z,100891.94
2023-02-03T06:15:57.495Z,100881.59
2023-02-03T06:18:26.527Z,100882.88
2023-02-03T06:20:54.213Z,100877.81
2023-02-03T06:23:21.795Z,100870.44
2023-02-03T06:25:50.796Z,100867.41
2023-02-03T06:28:19.230Z,100874.78
2023-02-03T06:30:50.303Z,100876.13
2023-02-03T06:33:17.973Z,100881.53
2023-02-03T06:35:46.954Z,100869.88
2023-02-03T06:38:14.501Z,100864.38
2023-02-03T06:40:42.052Z,100870.59
2023-02-03T06:43:09.581Z,100853.25
2023-02-03T06:45:37.186Z,100845.19
2023-02-03T06:48:04.865Z,100854.34
2023-02-03T06:50:32.688Z,100852.88
2023-02-03T06:53:01.625Z,100846.78
2023-02-03T06:55:29.263Z,100852.84
2023-02-03T06:57:56.846Z,100842.81
2023-02-03T07:00:24.730Z,100861.72
2023-02-03T07:02:55.068Z,100860.03
2023-02-03T07:05:23.220Z,100855.72
2023-02-03T07:07:51.304Z,100863.78
2023-02-03T07:10:20.700Z,100876.09
2023-02-03T07:12:48.387Z,100889.75
2023-02-03T07:15:16.827Z,100901.84
2023-02-03T07:17:44.406Z,100898.09
2023-02-03T07:20:12.798Z,100891.38
2023-02-03T07:22:42.300Z,100899.81
2023-02-03T07:25:09.821Z,100912.72
2023-02-03T07:27:38.770Z,100908.66
2023-02-03T07:30:07.229Z,100910.56
2023-02-03T07:32:34.778Z,100912.38
2023-02-03T07:35:02.314Z,100915.09
2023-02-03T07:37:29.871Z,100921.78
2023-02-03T07:39:57.508Z,100924.34
2023-02-03T07:42:25.215Z,100926.75
2023-02-03T07:44:54.099Z,100938.47
2023-02-03T07:47:21.743Z,100909.59
2023-02-03T07:49:49.420Z,100901.44
2023-02-03T07:52:16.998Z,100917.00
2023-02-03T07:54:44.570Z,100928.84
2023-02-03T07:57:12.530Z,100938.44
2023-02-03T07:59:40.394Z,100932.81
2023-02-03T08:02:11.238Z,100944.22
2023-02-03T08:04:39.081Z,100943.09
2023-02-03T08:07:06.667Z,100938.94
2023-02-03T08:09:34.302Z,100931.38
2023-02-03T08:12:01.984Z,100927.78
2023-02-03T08:14:31.212Z,100924.06
2023-02-03T08:16:58.915Z,100939.16
2023-02-03T08:19:27.850Z,100938.56
2023-02-03T08:21:55.440Z,100927.38
2023-02-03T08:24:23.083Z,100938.50
2023-02-03T08:26:50.710Z,100945.16
2023-02-03T08:29:18.591Z,100940.38
2023-02-03T08:31:46.271Z,100949.94
2023-02-03T08:34:13.933Z,100955.09
2023-02-03T08:36:44.103Z,100948.34
2023-02-03T08:39:11.870Z,100954.69
2023-02-03T08:41:39.527Z,100941.66
2023-02-03T08:44:07.194Z,100938.75
2023-02-03T08:46:36.388Z,100922.22
2023-02-03T08:49:04.086Z,100914.72
2023-02-03T08:51:31.723Z,100918.13
2023-02-03T08:54:00.664Z,100928.63
2023-02-03T08:56:28.526Z,100942.16
2023-02-03T08:58:56.169Z,100920.47
2023-02-03T09:01:23.912Z,100910.50
2023-02-03T09:03:51.597Z,100898.81
2023-02-03T09:06:21.362Z,100917.41
2023-02-03T09:08:50.430Z,100918.34
2023-02-03T09:11:19.654Z,100920.41
2023-02-03T09:13:48.537Z,100918.47
2023-02-03T09:18:46.449Z,100916.19
2023-02-03T09:21:32.055Z,100926.00
2023-02-03T09:24:01.933Z,100912.31
2023-02-03T09:26:31.505Z,100907.59
2023-02-03T09:28:59.115Z,100900.31
2023-02-03T09:31:26.813Z,100890.47
2023-02-03T09:33:54.614Z,100890.34
2023-02-03T09:36:22.604Z,100913.72
2023-02-03T09:38:50.354Z,100909.41
2023-02-03T09:41:29.702Z,100918.44
2023-02-03T09:44:06.168Z,100918.94
2023-02-03T09:46:38.910Z,100916.56
2023-02-03T09:49:14.908Z,100915.25
2023-02-03T09:51:49.402Z,100917.09
2023-02-03T09:54:21.330Z,100905.91
2023-02-03T09:56:52.464Z,100899.63
2023-02-03T09:59:21.595Z,100891.22
2023-02-03T10:01:59.348Z,100889.75
2023-02-03T10:04:34.596Z,100878.75
2023-02-03T10:07:12.871Z,100869.03
2023-02-03T10:09:51.514Z,100875.34
2023-02-03T10:12:51.326Z,100884.19
2023-02-03T10:15:38.380Z,100904.00
2023-02-03T10:18:10.774Z,100909.91
2023-02-03T10:20:43.668Z,100902.22
2023-02-03T10:23:16.071Z,100894.28
2023-02-03T10:25:47.037Z,100874.72
2023-02-03T10:28:19.230Z,100878.50
2023-02-03T10:30:51.257Z,100886.84
2023-02-03T10:33:22.078Z,100887.06
2023-02-03T10:35:52.797Z,100899.75
2023-02-03T10:38:36.618Z,100882.03
2023-02-03T10:41:04.731Z,100880.78
2023-02-03T10:43:51.353Z,100872.44
2023-02-03T10:46:22.643Z,100865.28
2023-02-03T10:48:50.598Z,100867.53
2023-02-03T10:51:22.814Z,100857.63
2023-02-03T10:53:53.238Z,100855.25
2023-02-03T10:56:24.640Z,100842.00
2023-02-03T10:58:55.292Z,100819.22
2023-02-03T11:01:27.319Z,100796.44
2023-02-03T11:03:58.949Z,100805.03
2023-02-03T11:06:27.458Z,100801.69
2023-02-03T11:08:55.916Z,100794.91
2023-02-03T11:11:26.391Z,100794.34
2023-02-03T11:13:55.924Z,100803.69
2023-02-03T11:16:25.576Z,100798.81
2023-02-03T11:18:59.087Z,100809.53
2023-02-03T11:21:31.317Z,100810.63
2023-02-03T11:24:04.709Z,100815.31
2023-02-03T11:26:37.065Z,100798.41
2023-02-03T11:29:08.148Z,100799.75
2023-02-03T11:31:37.944Z,100814.22
2023-02-03T11:34:08.784Z,100805.16
2023-02-03T11:36:36.919Z,100812.25
2023-02-03T11:39:22.707Z,100821.19
2023-02-03T11:41:50.657Z,100840.59
2023-02-03T11:44:21.191Z,100850.75
2023-02-03T11:46:53.085Z,100872.75
2023-02-03T11:49:56.237Z,100880.59
2023-02-03T11:52:38.490Z,100876.16
2023-02-03T11:55:17.346Z,100875.47
2023-02-03T11:57:53.772Z,100877.53
2023-02-03T12:00:31.634Z,100881.94
2023-02-03T12:03:28.237Z,100880.25
2023-02-03T12:06:19.311Z,100873.25
2023-02-03T12:08:59.187Z,100879.81
2023-02-03T12:11:38.984Z,100874.47
2023-02-03T12:14:24.295Z,100866.00
2023-02-03T12:17:19.055Z,100870.03
2023-02-03T12:20:02.317Z,100815.72
2023-02-03T12:22:44.918Z,100800.81
2023-02-03T12:25:27.724Z,100778.19
2023-02-03T12:28:02.201Z,100781.56
2023-02-03T12:30:34.121Z,100786.44
2023-02-03T12:33:07.335Z,100781.53
2023-02-03T12:35:40.918Z,100774.31
2023-02-03T12:38:15.305Z,100790.34
2023-02-03T12:40:49.148Z,100771.97
2023-02-03T12:43:25.503Z,100786.56
2023-02-03T12:45:58.011Z,100788.19
2023-02-03T12:48:30.080Z,100784.22
2023-02-03T12:51:05.250Z,100796.59
2023-02-03T12:53:36.015Z,100785.19
2023-02-03T12:56:10.774Z,100779.78
2023-02-03T12:58:42.876Z,100786.47
2023-02-03T13:01:17.478Z,100777.53
2023-02-03T13:03:51.278Z,100774.66
2023-02-03T13:06:28.541Z,100762.94
2023-02-03T13:09:02.293Z,100758.63
2023-02-03T13:11:36.008Z,100769.78
2023-02-03T13:14:14.302Z,100762.09
2023-02-03T13:16:45.979Z,100747.50
2023-02-03T13:19:23.962Z,100715.31
2023-02-03T13:21:53.090Z,100722.88
2023-02-03T13:24:24.740Z,100719.53
2023-02-03T13:27:09.508Z,100720.50
2023-02-03T13:29:54.288Z,100716.09
2023-02-03T13:32:38.981Z,100713.03
2023-02-03T13:35:33.190Z,100737.94
2023-02-03T13:38:39.614Z,100725.94
2023-02-03T13:41:13.957Z,100740.41
2023-02-03T13:43:46.153Z,100736.09
2023-02-03T13:46:24.131Z,100718.44
2023-02-03T13:48:52.876Z,100739.81
2023-02-03T13:51:25.035Z,100729.66
2023-02-03T13:54:00.875Z,100719.09
2023-02-03T13:56:29.369Z,100707.28
2023-02-03T13:59:02.401Z,100717.31
2023-02-03T14:01:38.620Z,100705.91
2023-02-03T14:04:08.965Z,100712.19
2023-02-03T14:07:00.935Z,100722.88
2023-02-03T14:09:48.280Z,100738.66
2023-02-03T14:12:22.422Z,100778.97
2023-02-03T14:15:04.839Z,100754.13
2023-02-03T14:18:07.262Z,100749.41
2023-02-03T14:20:42.079Z,100764.41
2023-02-03T14:23:15.773Z,100775.78
2023-02-03T14:25:48.994Z,100780.69
2023-02-03T14:28:20.474Z,100782.56
2023-02-03T14:31:19.338Z,100788.28
2023-02-03T14:33:58.256Z,100789.53
2023-02-03T14:36:31.659Z,100776.09
2023-02-03T14:39:03.448Z,100803.25
2023-02-03T14:41:46.147Z,100812.84
2023-02-03T14:44:29.392Z,100805.78
2023-02-03T14:47:08.635Z,100808.78
2023-02-03T14:49:49.824Z,100811.81
2023-02-03T14:52:52.115Z,100809.22
2023-02-03T14:55:49.379Z,100815.47
2023-02-03T14:58:24.973Z,100802.31
2023-02-03T15:00:54.692Z,100799.69
2023-02-03T15:03:25.503Z,100801.81
2023-02-03T15:05:56.803Z,100808.34
2023-02-03T15:08:46.587Z,100826.00
2023-02-03T15:11:24.599Z,100825.28
2023-02-03T15:13:54.084Z,100823.38
2023-02-03T15:16:23.842Z,100832.56
2023-02-03T15:19:00.787Z,100821.09
2023-02-03T15:21:28.413Z,100840.44
2023-02-03T15:23:56.102Z,100837.91
2023-02-03T15:26:26.125Z,100829.69
2023-02-03T15:28:59.861Z,100826.44
2023-02-03T15:31:33.849Z,100827.16
2023-02-03T15:34:07.142Z,100830.41
2023-02-03T15:36:43.235Z,100828.44
2023-02-03T15:39:19.923Z,100836.03
2023-02-03T15:41:49.776Z,100831.25
2023-02-03T15:44:27.498Z,100824.59
2023-02-03T15:46:56.177Z,100834.06
2023-02-03T15:49:31.004Z,100830.72
2023-02-03T15:52:02.476Z,100826.94
2023-02-03T15:54:40.801Z,100828.44
2023-02-03T15:57:11.537Z,100814.69
2023-02-03T15:59:43.238Z,100831.25
2023-02-03T16:02:20.349Z,100825.13
2023-02-03T16:04:50.317Z,100837.31
2023-02-03T16:07:22.072Z,100839.28
2023-02-03T16:09:53.509Z,100819.00
2023-02-03T16:12:25.281Z,100827.03
2023-02-03T16:14:56.175Z,100817.34
2023-02-03T16:17:27.706Z,100815.41
2023-02-03T16:20:22.116Z,100807.03
2023-02-03T16:23:03.229Z,100787.59
2023-02-03T16:25:33.618Z,100779.25
2023-02-03T16:28:20.504Z,100786.19
2023-02-03T16:31:15.287Z,100787.88
2023-02-03T16:34:03.589Z,100808.81
2023-02-03T16:36:48.947Z,100809.41
2023-02-03T16:39:33.811Z,100805.81
2023-02-03T16:42:19.724Z,100833.16
2023-02-03T16:45:05.072Z,100834.16
2023-02-03T16:47:52.086Z,100851.84
2023-02-03T16:50:40.103Z,100867.28
2023-02-03T16:53:12.948Z,100876.53
2023-02-03T16:55:40.567Z,100876.22
2023-02-03T16:58:08.262Z,100899.22
2023-02-03T17:00:36.157Z,100909.91
2023-02-03T17:03:06.380Z,100915.06
2023-02-03T17:05:37.735Z,100914.28
2023-02-03T17:08:05.649Z,100916.94
2023-02-03T17:10:35.067Z,100920.41
2023-02-03T17:13:02.659Z,100910.81
2023-02-03T17:15:31.000Z,100908.53
2023-02-03T17:17:59.495Z,100901.31
2023-02-03T17:20:28.466Z,100896.47
2023-02-03T17:22:56.026Z,100906.31
2023-02-03T17:25:23.549Z,100910.06
2023-02-03T17:27:51.150Z,100908.38
2023-02-03T17:30:18.896Z,100893.38
2023-02-03T17:32:46.528Z,100892.56
2023-02-03T17:35:14.144Z,100894.59
2023-02-03T17:37:43.043Z,100893.91
2023-02-03T17:54:06.072Z,100907.53
2023-02-03T17:56:35.663Z,100903.09
2023-02-03T17:59:06.063Z,100890.03
2023-02-03T18:01:34.079Z,100886.81
2023-02-03T18:04:04.482Z,100883.59
2023-02-03T18:06:35.031Z,100893.91
2023-02-03T18:09:04.974Z,100906.38
2023-02-03T18:11:34.820Z,100914.00
2023-02-03T18:14:03.722Z,100914.34
2023-02-03T18:16:34.733Z,100914.72
2023-02-03T18:19:03.471Z,100903.94
2023-02-03T18:21:32.742Z,100907.09
2023-02-03T18:24:01.698Z,100892.22
2023-02-03T18:26:34.674Z,100899.84
2023-02-03T18:29:02.443Z,100907.03
2023-02-03T18:31:30.257Z,100901.16
2023-02-03T18:34:02.181Z,100892.78
2023-02-03T18:36:29.847Z,100897.22
2023-02-03T18:38:57.427Z,100886.94
2023-02-03T18:41:26.464Z,100897.22
2023-02-03T18:43:55.444Z,100886.66
2023-02-03T18:46:25.134Z,100901.31
2023-02-03T18:48:52.897Z,100896.72
2023-02-03T18:51:22.050Z,100898.41
2023-02-03T18:53:50.613Z,100899.84
2023-02-03T18:56:20.461Z,100892.41
2023-02-03T18:58:48.372Z,100883.75
2023-02-03T19:01:28.580Z,100904.97
2023-02-03T19:03:58.386Z,100893.06
2023-02-03T19:06:27.918Z,100901.97
2023-02-03T19:08:55.879Z,100906.41
2023-02-03T19:11:24.269Z,100909.50
2023-02-03T19:13:52.018Z,100920.03
2023-02-03T19:16:20.211Z,100917.41
2023-02-03T19:18:49.354Z,100912.00
2023-02-03T19:21:17.419Z,100907.34
2023-02-03T19:23:45.167Z,100914.84
2023-02-03T19:26:13.106Z,100911.25
2023-02-03T19:28:41.911Z,100902.63
2023-02-03T19:31:13.339Z,100912.94
2023-02-03T19:33:41.137Z,100918.22
2023-02-03T19:36:11.892Z,100930.44
2023-02-03T19:38:40.188Z,100927.81
2023-02-03T19:41:08.771Z,100940.63
2023-02-03T19:43:36.573Z,100929.81
2023-02-03T19:46:04.218Z,100934.72
2023-02-03T19:48:31.908Z,100937.59
2023-02-03T19:50:59.698Z,100940.22
2023-02-03T19:53:28.938Z,100931.22
2023-02-03T19:55:56.665Z,100916.63
2023-02-03T19:58:24.553Z,100928.38
2023-02-03T20:00:52.756Z,100933.16
2023-02-03T20:03:20.682Z,100928.97
2023-02-03T20:05:48.454Z,100933.41
2023-02-03T20:08:16.692Z,100925.22
2023-02-03T20:10:46.103Z,100924.38
2023-02-03T20:13:14.382Z,100934.72
2023-02-03T20:15:42.102Z,100925.94
2023-02-03T20:18:10.976Z,100939.47
2023-02-03T20:20:38.719Z,100937.34
2023-02-03T20:23:06.405Z,100958.91
2023-02-03T20:25:34.041Z,100948.22
2023-02-03T20:28:04.219Z,100960.84
2023-02-03T20:30:32.378Z,100948.91
2023-02-03T20:33:00.366Z,100956.84
2023-02-03T20:35:28.429Z,100958.19
2023-02-03T20:37:56.140Z,100949.19
2023-02-03T20:40:26.591Z,100952.66
2023-02-03T20:42:54.168Z,100956.50
2023-02-03T20:45:25.208Z,100954.88
2023-02-03T20:47:52.987Z,100962.63
2023-02-03T20:50:26.906Z,100972.13
2023-02-03T20:52:59.072Z,100978.63
2023-02-03T20:55:26.727Z,100966.72
2023-02-03T20:57:56.764Z,100965.88
2023-02-03T21:00:27.800Z,100962.72
2023-02-03T21:03:13.687Z,100956.59
2023-02-03T21:05:42.771Z,100961.03
2023-02-03T21:08:15.123Z,100960.31
2023-02-03T21:10:43.482Z,100962.63
2023-02-03T21:13:22.646Z,100958.19
2023-02-03T21:15:53.578Z,100961.94
2023-02-03T21:18:33.626Z,100975.72
2023-02-03T21:21:02.755Z,100987.44
2023-02-03T21:23:38.678Z,100990.09
2023-02-03T21:26:17.510Z,101001.03
2023-02-03T21:28:45.158Z,101000.97
2023-02-03T21:31:26.664Z,101001.09
2023-02-03T21:33:55.213Z,101001.22
2023-02-03T21:36:24.515Z,101009.22
2023-02-03T21:38:54.584Z,101013.47
2023-02-03T21:41:24.558Z,101010.69
2023-02-03T21:43:54.440Z,101010.19
2023-02-03T21:46:26.708Z,101011.66
2023-02-03T21:48:55.502Z,101007.84
2023-02-03T21:51:24.552Z,100998.44
2023-02-03T21:53:57.705Z,100997.94
2023-02-03T21:56:27.307Z,100994.41
2023-02-03T21:58:58.826Z,100990.91
2023-02-03T22:01:32.088Z,100990.13
2023-02-03T22:04:01.424Z,100984.41
2023-02-03T22:06:35.822Z,100988.84
2023-02-03T22:09:03.484Z,100996.47
2023-02-03T22:11:33.130Z,101003.22
2023-02-03T22:14:00.806Z,101010.38
2023-02-03T22:16:29.970Z,101004.06
2023-02-03T22:18:57.565Z,101023.31
2023-02-03T22:21:25.134Z,101015.91
2023-02-03T22:23:52.985Z,101032.47
2023-02-03T22:26:21.160Z,101032.53
2023-02-03T22:28:49.061Z,101040.06
2023-02-03T22:31:17.082Z,101034.97
2023-02-03T22:33:46.327Z,101043.78
2023-02-03T22:36:14.445Z,101031.94
2023-02-03T22:38:42.514Z,101029.19
2023-02-03T22:41:12.888Z,101021.56
2023-02-03T22:43:41.224Z,101024.66
2023-02-03T22:46:09.389Z,101025.63
2023-02-03T22:48:37.251Z,101025.88
2023-02-03T22:51:06.509Z,101039.97
2023-02-03T22:53:34.721Z,101032.84
2023-02-03T22:56:02.536Z,101038.84
2023-02-03T22:58:30.101Z,101029.69
2023-02-03T23:00:57.736Z,101041.31
2023-02-03T23:03:25.401Z,101029.69
2023-02-03T23:05:52.956Z,101043.47
2023-02-03T23:08:21.891Z,101035.47
2023-02-03T23:10:49.684Z,101039.41
2023-02-03T23:13:17.273Z,101043.59
2023-02-03T23:15:45.402Z,101044.31
2023-02-03T23:18:13.045Z,101055.81
2023-02-03T23:20:40.698Z,101051.88
2023-02-03T23:23:08.336Z,101063.44
2023-02-03T23:25:37.344Z,101078.56
2023-02-03T23:28:05.351Z,101082.63
2023-02-03T23:30:34.441Z,101071.16
2023-02-03T23:33:02.082Z,101062.28
2023-02-03T23:35:47.080Z,101070.09
2023-02-03T23:38:15.111Z,101075.13
2023-02-03T23:40:44.565Z,101072.59
2023-02-03T23:43:12.264Z,101075.75
2023-02-03T23:45:40.088Z,101079.06
2023-02-03T23:48:08.153Z,101080.25
2023-02-03T23:50:35.733Z,101081.81
2023-02-03T23:53:03.264Z,101090.81
2023-02-03T23:55:31.354Z,101088.50
2023-02-03T23:58:00.344Z,101098.38
